createdAt,value
2024-03-12T00:01:21.306Z,2.60
2024-03-12T00:03:50.789Z,3.00
2024-03-12T00:06:20.214Z,3.10
2024-03-12T00:08:49.816Z,2.50
2024-03-12T00:11:18.159Z,2.40
2024-03-12T00:13:46.981Z,2.30
2024-03-12T00:16:15.563Z,2.70
2024-03-12T00:18:44.593Z,3.30
2024-03-12T00:21:13.849Z,4.20
2024-03-12T00:23:43.573Z,3.40
2024-03-12T00:26:12.186Z,3.90
2024-03-12T00:28:40.461Z,4.30
2024-03-12T00:31:10.385Z,3.90
2024-03-12T00:33:38.451Z,4.10
2024-03-12T00:36:07.280Z,3.60
2024-03-12T00:38:35.580Z,2.80
2024-03-12T00:41:05.086Z,2.60
2024-03-12T00:43:33.594Z,2.60
2024-03-12T00:46:03.127Z,2.60
2024-03-12T00:48:31.217Z,2.30
2024-03-12T00:50:59.409Z,2.20
2024-03-12T00:53:27.796Z,2.60
2024-03-12T00:55:56.174Z,2.50
2024-03-12T00:58:25.097Z,2.60
2024-03-12T01:00:55.072Z,2.30
2024-03-12T01:03:25.575Z,2.30
2024-03-12T01:05:55.019Z,2.20
2024-03-12T01:08:23.323Z,2.50
2024-03-12T01:10:51.688Z,2.60
2024-03-12T01:13:20.075Z,2.40
2024-03-12T01:15:49.552Z,2.40
2024-03-12T01:18:17.787Z,2.40
2024-03-12T01:20:46.316Z,2.00
2024-03-12T01:23:15.015Z,2.50
2024-03-12T01:25:43.269Z,2.90
2024-03-12T01:28:12.020Z,1.90
2024-03-12T01:30:41.099Z,2.10
2024-03-12T01:33:09.659Z,2.60
2024-03-12T01:35:41.935Z,2.10
2024-03-12T01:38:12.149Z,2.60
2024-03-12T01:40:43.169Z,2.30
2024-03-12T01:45:44.030Z,2.20
2024-03-12T01:48:13.469Z,2.30
2024-03-12T01:50:42.589Z,2.20
2024-03-12T01:53:12.403Z,2.30
2024-03-12T01:55:45.344Z,2.00
2024-03-12T01:58:16.104Z,2.40
2024-03-12T02:00:46.234Z,2.10
2024-03-12T02:03:15.330Z,2.30
2024-03-12T02:05:43.818Z,2.50
2024-03-12T02:08:12.570Z,2.40
2024-03-12T02:10:41.344Z,2.10
2024-03-12T02:13:09.677Z,2.10
2024-03-12T02:15:38.207Z,2.20
2024-03-12T02:18:10.750Z,1.90
2024-03-12T02:20:39.665Z,2.20
2024-03-12T02:23:07.982Z,2.10
2024-03-12T02:25:36.332Z,1.80
2024-03-12T02:28:05.091Z,1.60
2024-03-12T02:30:33.331Z,1.80
2024-03-12T02:33:04.153Z,2.00
2024-03-12T02:35:36.166Z,1.90
2024-03-12T02:38:05.142Z,1.50
2024-03-12T02:40:33.325Z,1.90
2024-03-12T02:43:01.576Z,1.60
2024-03-12T02:45:30.073Z,1.50
2024-03-12T02:47:58.488Z,1.30
2024-03-12T02:50:27.581Z,1.40
2024-03-12T02:52:56.828Z,1.60
2024-03-12T02:55:25.042Z,1.60
2024-03-12T02:57:53.177Z,1.80
2024-03-12T03:00:22.649Z,1.50
2024-03-12T03:02:50.888Z,1.50
2024-03-12T03:05:19.264Z,1.40
2024-03-12T03:07:49.721Z,1.30
2024-03-12T03:10:17.945Z,1.60
2024-03-12T03:12:46.682Z,1.40
2024-03-12T03:15:15.442Z,1.60
2024-03-12T03:17:45.188Z,1.60
2024-03-12T03:20:15.713Z,1.60
2024-03-12T03:22:44.289Z,2.10
2024-03-12T03:25:13.901Z,1.50
2024-03-12T03:27:42.300Z,1.90
2024-03-12T03:30:19.674Z,1.40
2024-03-12T03:32:49.451Z,1.30
2024-03-12T03:35:19.654Z,1.30
2024-03-12T03:37:48.410Z,1.50
2024-03-12T03:40:24.496Z,1.50
2024-03-12T03:42:54.706Z,1.70
2024-03-12T03:45:26.402Z,2.20
2024-03-12T03:47:55.033Z,2.30
2024-03-12T03:50:23.276Z,3.20
2024-03-12T03:52:53.909Z,2.20
2024-03-12T03:55:23.369Z,2.30
2024-03-12T03:57:51.953Z,2.40
2024-03-12T04:00:31.645Z,1.50
2024-03-12T04:03:00.107Z,1.20
2024-03-12T04:05:28.386Z,1.40
2024-03-12T04:07:56.580Z,1.50
2024-03-12T04:10:25.013Z,2.20
2024-03-12T04:12:57.544Z,1.40
2024-03-12T04:15:30.320Z,1.70
2024-03-12T04:17:59.279Z,1.20
2024-03-12T04:20:27.852Z,1.80
2024-03-12T04:22:57.073Z,1.50
2024-03-12T04:25:25.371Z,1.40
2024-03-12T04:27:54.909Z,1.30
2024-03-12T04:30:23.874Z,1.90
2024-03-12T04:32:52.147Z,1.70
2024-03-12T04:35:20.267Z,1.30
2024-03-12T04:37:49.488Z,2.50
2024-03-12T04:40:19.331Z,1.90
2024-03-12T04:42:48.226Z,1.40
2024-03-12T04:45:16.346Z,1.50
2024-03-12T04:47:45.157Z,1.50
2024-03-12T04:50:15.925Z,1.40
2024-03-12T04:52:44.268Z,1.60
2024-03-12T04:55:14.465Z,1.30
2024-03-12T04:57:43.938Z,1.30
2024-03-12T05:00:16.700Z,1.50
2024-03-12T05:02:49.785Z,1.60
2024-03-12T05:05:19.739Z,1.90
2024-03-12T05:07:49.402Z,2.30
2024-03-12T05:10:18.964Z,2.50
2024-03-12T05:12:47.393Z,2.70
2024-03-12T05:15:15.966Z,2.30
2024-03-12T05:17:44.284Z,2.60
2024-03-12T05:20:16.360Z,2.60
2024-03-12T05:22:48.294Z,2.10
2024-03-12T05:25:40.896Z,1.90
2024-03-12T05:28:11.254Z,2.00
2024-03-12T05:30:43.758Z,1.90
2024-03-12T05:33:15.836Z,2.30
2024-03-12T05:35:52.806Z,5.00
2024-03-12T05:38:32.251Z,5.80
2024-03-12T05:41:10.668Z,4.40
2024-03-12T05:43:57.617Z,3.60
2024-03-12T05:46:46.425Z,3.70
2024-03-12T05:49:17.604Z,3.70
2024-03-12T05:51:46.003Z,3.70
2024-03-12T05:54:14.344Z,3.40
2024-03-12T05:56:42.717Z,5.20
2024-03-12T05:59:11.953Z,4.70
2024-03-12T06:01:40.139Z,4.60
2024-03-12T06:04:08.425Z,3.80
2024-03-12T06:06:36.931Z,2.20
2024-03-12T06:09:05.072Z,1.60
2024-03-12T06:11:33.438Z,2.10
2024-03-12T06:14:04.336Z,2.00
2024-03-12T06:16:33.911Z,2.00
2024-03-12T06:19:02.286Z,1.50
2024-03-12T06:21:31.270Z,1.70
2024-03-12T06:23:59.564Z,1.50
2024-03-12T06:26:28.137Z,1.90
2024-03-12T06:28:56.881Z,1.50
2024-03-12T06:31:25.241Z,1.80
2024-03-12T06:33:53.630Z,1.90
2024-03-12T06:36:21.999Z,1.90
2024-03-12T06:38:52.470Z,2.10
2024-03-12T06:46:21.022Z,1.60
2024-03-12T06:48:49.760Z,1.40
2024-03-12T06:51:17.900Z,1.90
2024-03-12T06:53:46.260Z,1.60
2024-03-12T06:56:17.768Z,1.60
2024-03-12T06:58:47.234Z,1.90
2024-03-12T07:01:16.878Z,2.30
2024-03-12T07:03:47.155Z,2.40
2024-03-12T07:06:16.760Z,2.40
2024-03-12T07:08:45.996Z,1.80
2024-03-12T07:11:15.969Z,1.80
2024-03-12T07:13:44.775Z,1.90
2024-03-12T07:16:12.831Z,1.80
2024-03-12T07:18:41.018Z,1.50
2024-03-12T07:21:11.280Z,1.20
2024-03-12T07:23:39.541Z,1.60
2024-03-12T07:26:08.088Z,1.70
2024-03-12T07:28:36.770Z,1.50
2024-03-12T07:31:05.158Z,1.40
2024-03-12T07:33:33.590Z,1.80
2024-03-12T07:36:05.828Z,1.30
2024-03-12T07:38:33.970Z,0.50
2024-03-12T07:41:02.164Z,0.80
2024-03-12T07:43:31.285Z,0.70
2024-03-12T07:45:59.479Z,0.60
2024-03-12T07:48:28.028Z,0.60
2024-03-12T07:50:59.541Z,0.40
2024-03-12T07:53:31.318Z,0.70
2024-03-12T07:56:02.545Z,0.40
2024-03-12T07:58:31.341Z,0.60
2024-03-12T08:01:00.932Z,0.60
2024-03-12T08:03:29.671Z,0.60
2024-03-12T08:05:59.011Z,0.60
2024-03-12T08:08:27.394Z,0.80
2024-03-12T08:10:58.759Z,0.90
2024-03-12T08:13:27.868Z,0.80
2024-03-12T08:15:56.067Z,0.70
2024-03-12T08:18:24.253Z,0.80
2024-03-12T08:20:53.453Z,0.60
2024-03-12T08:23:21.584Z,0.80
2024-03-12T08:25:56.390Z,0.80
2024-03-12T08:28:29.150Z,0.60
2024-03-12T08:31:02.538Z,0.60
2024-03-12T08:33:36.742Z,0.60
2024-03-12T08:36:05.690Z,0.60
2024-03-12T08:38:34.356Z,0.70
2024-03-12T08:41:02.746Z,0.50
2024-03-12T08:43:31.090Z,0.60
2024-03-12T08:45:59.939Z,0.70
2024-03-12T08:48:28.541Z,0.70
2024-03-12T08:50:59.460Z,1.00
2024-03-12T08:53:27.728Z,0.70
2024-03-12T08:55:55.716Z,0.80
2024-03-12T08:58:24.782Z,0.70
2024-03-12T09:00:53.607Z,0.80
2024-03-12T09:03:22.535Z,0.90
2024-03-12T09:05:51.663Z,0.90
2024-03-12T09:08:19.893Z,0.90
2024-03-12T09:10:49.025Z,0.70
2024-03-12T09:13:17.904Z,1.00
2024-03-12T09:15:46.310Z,1.00
2024-03-12T09:18:21.402Z,0.80
2024-03-12T09:20:50.743Z,0.60
2024-03-12T09:23:20.436Z,0.80
2024-03-12T09:25:48.920Z,0.90
2024-03-12T09:28:19.108Z,0.80
2024-03-12T09:30:47.328Z,0.40
2024-03-12T09:33:15.616Z,0.60
2024-03-12T09:35:44.566Z,0.60
2024-03-12T09:38:12.774Z,0.60
2024-03-12T09:40:43.903Z,0.70
2024-03-12T09:43:13.679Z,0.80
2024-03-12T09:45:42.139Z,0.40
2024-03-12T09:48:10.577Z,1.00
2024-03-12T09:50:38.864Z,0.80
2024-03-12T09:53:07.020Z,0.90
2024-03-12T09:55:36.775Z,0.90
2024-03-12T09:58:05.563Z,0.80
2024-03-12T10:00:34.835Z,0.70
2024-03-12T10:03:03.200Z,1.60
2024-03-12T10:05:33.220Z,0.90
2024-03-12T10:08:16.689Z,0.80
2024-03-12T10:10:46.788Z,0.90
2024-03-12T10:15:52.251Z,0.70
2024-03-12T10:18:22.364Z,0.80
2024-03-12T10:23:22.388Z,0.70
2024-03-12T10:25:50.767Z,1.10
2024-03-12T10:28:26.406Z,0.90
2024-03-12T10:31:10.713Z,0.80
2024-03-12T10:33:46.696Z,1.00
2024-03-12T10:36:30.002Z,0.90
2024-03-12T10:38:58.223Z,0.70
2024-03-12T10:41:27.128Z,0.80
2024-03-12T10:44:09.026Z,0.70
2024-03-12T10:46:40.534Z,0.90
2024-03-12T10:49:14.222Z,0.90
2024-03-12T10:51:44.905Z,1.30
2024-03-12T10:54:15.703Z,0.90
2024-03-12T10:56:47.218Z,0.90
2024-03-12T10:59:17.788Z,0.70
2024-03-12T11:01:49.291Z,0.80
2024-03-12T11:04:18.841Z,1.10
2024-03-12T11:06:50.028Z,1.00
2024-03-12T11:09:23.205Z,0.90
2024-03-12T11:11:52.139Z,0.70
2024-03-12T11:14:20.596Z,0.90
2024-03-12T11:16:49.264Z,1.10
2024-03-12T11:19:24.855Z,1.20
2024-03-12T11:21:55.276Z,1.00
2024-03-12T11:24:33.510Z,0.80
2024-03-12T11:27:02.054Z,0.90
2024-03-12T11:30:13.129Z,0.70
2024-03-12T11:32:43.041Z,1.10
2024-03-12T11:35:17.539Z,0.90
2024-03-12T11:38:01.385Z,0.90
2024-03-12T11:40:48.222Z,1.30
2024-03-12T11:43:43.102Z,1.40
2024-03-12T11:46:17.192Z,1.10
2024-03-12T11:48:46.875Z,1.10
2024-03-12T11:51:16.311Z,1.00
2024-03-12T11:53:48.619Z,1.00
2024-03-12T11:56:23.952Z,1.00
2024-03-12T11:58:59.595Z,1.10
2024-03-12T12:01:35.265Z,0.70
2024-03-12T12:04:06.745Z,0.50
2024-03-12T12:06:35.284Z,0.90
2024-03-12T12:09:10.536Z,0.60
2024-03-12T12:11:40.104Z,0.70
2024-03-12T12:14:10.731Z,1.10
2024-03-12T12:16:41.135Z,0.80
2024-03-12T12:19:16.340Z,0.90
2024-03-12T12:21:53.291Z,0.90
2024-03-12T12:24:26.732Z,0.80
2024-03-12T12:26:57.377Z,0.90
2024-03-12T12:29:30.135Z,0.80
2024-03-12T12:31:58.944Z,0.90
2024-03-12T12:34:29.829Z,1.00
2024-03-12T12:36:59.885Z,0.70
2024-03-12T12:39:40.111Z,0.80
2024-03-12T12:42:12.316Z,0.60
2024-03-12T12:44:41.446Z,0.70
2024-03-12T12:47:11.511Z,0.10
2024-03-12T12:49:40.278Z,0.90
2024-03-12T12:52:08.827Z,0.60
2024-03-12T12:54:40.690Z,0.40
2024-03-12T12:57:11.904Z,0.40
2024-03-12T12:59:41.362Z,0.60
2024-03-12T13:02:19.991Z,0.70
2024-03-12T13:04:56.662Z,0.80
2024-03-12T13:07:34.241Z,0.50
2024-03-12T13:10:16.537Z,0.50
2024-03-12T13:12:46.539Z,0.70
2024-03-12T13:15:29.500Z,0.60
2024-03-12T13:17:57.819Z,0.80
2024-03-12T13:20:26.394Z,0.70
2024-03-12T13:22:56.391Z,0.80
2024-03-12T13:27:52.764Z,0.80
2024-03-12T13:30:21.188Z,0.70
2024-03-12T13:32:49.382Z,0.50
2024-03-12T13:35:20.408Z,0.50
2024-03-12T13:37:48.497Z,0.90
2024-03-12T13:40:16.894Z,1.20
2024-03-12T13:42:45.059Z,1.00
2024-03-12T13:45:13.397Z,0.90
2024-03-12T13:47:42.053Z,0.70
2024-03-12T13:50:11.050Z,1.00
2024-03-12T13:52:40.629Z,0.80
2024-03-12T13:55:12.831Z,1.20
2024-03-12T13:57:42.930Z,0.70
2024-03-12T14:00:12.896Z,0.90
2024-03-12T14:02:41.445Z,0.80
2024-03-12T14:05:10.401Z,0.90
2024-03-12T14:07:38.526Z,0.80
2024-03-12T14:10:09.257Z,1.20
2024-03-12T14:12:38.609Z,1.00
2024-03-12T14:15:07.430Z,1.00
2024-03-12T14:17:35.810Z,0.90
2024-03-12T14:20:12.148Z,0.80
2024-03-12T14:22:40.466Z,1.00
2024-03-12T14:25:09.297Z,1.20
2024-03-12T14:27:37.660Z,1.30
2024-03-12T14:30:10.213Z,1.10
2024-03-12T14:32:38.451Z,1.10
2024-03-12T14:35:07.400Z,0.90
2024-03-12T14:37:35.555Z,0.80
2024-03-12T14:40:09.044Z,1.00
2024-03-12T14:42:39.220Z,1.80
2024-03-12T14:45:11.738Z,1.40
2024-03-12T14:47:42.098Z,2.00
2024-03-12T14:50:11.213Z,2.80
2024-03-12T14:52:39.791Z,1.20
2024-03-12T14:55:09.698Z,1.00
2024-03-12T14:57:38.327Z,0.70
2024-03-12T15:00:18.065Z,2.00
2024-03-12T15:02:47.352Z,0.70
2024-03-12T15:05:16.120Z,0.80
2024-03-12T15:07:45.399Z,0.80
2024-03-12T15:10:13.826Z,0.60
2024-03-12T15:12:42.757Z,1.10
2024-03-12T15:15:12.470Z,1.70
2024-03-12T15:17:43.269Z,0.70
2024-03-12T15:22:46.897Z,0.90
2024-03-12T15:25:16.579Z,0.50
2024-03-12T15:27:44.926Z,1.60
2024-03-12T15:30:13.940Z,0.50
2024-03-12T15:32:42.924Z,0.40
2024-03-12T15:35:15.554Z,0.70
2024-03-12T15:37:43.921Z,0.80
2024-03-12T15:40:14.033Z,1.00
2024-03-12T15:42:45.306Z,0.80
2024-03-12T15:45:17.179Z,1.00
2024-03-12T15:47:47.334Z,0.90
2024-03-12T15:50:18.551Z,0.80
2024-03-12T15:52:47.728Z,0.80
2024-03-12T15:55:16.234Z,0.70
2024-03-12T15:57:47.307Z,0.80
2024-03-12T16:00:16.209Z,1.20
2024-03-12T16:02:45.438Z,0.80
2024-03-12T16:05:14.272Z,1.10
2024-03-12T16:07:42.444Z,1.00
2024-03-12T16:10:11.330Z,1.00
2024-03-12T16:12:43.005Z,1.00
2024-03-12T16:15:15.571Z,1.10
2024-03-12T16:17:44.260Z,1.00
2024-03-12T16:20:16.653Z,1.00
2024-03-12T16:22:45.209Z,0.80
2024-03-12T16:25:17.326Z,0.80
2024-03-12T16:27:45.882Z,1.20
2024-03-12T16:30:15.922Z,0.90
2024-03-12T16:32:45.901Z,1.10
2024-03-12T16:35:16.796Z,1.50
2024-03-12T16:37:45.563Z,1.40
2024-03-12T16:40:14.371Z,1.60
2024-03-12T16:42:45.791Z,1.70
2024-03-12T16:45:14.908Z,1.80
2024-03-12T16:47:43.443Z,1.80
2024-03-12T16:50:12.633Z,2.10
2024-03-12T16:52:41.701Z,1.50
2024-03-12T16:55:11.504Z,1.40
2024-03-12T16:57:40.609Z,1.30
2024-03-12T17:00:15.634Z,2.10
2024-03-12T17:02:45.870Z,2.70
2024-03-12T17:05:20.188Z,2.40
2024-03-12T17:07:49.890Z,5.30
2024-03-12T17:10:20.092Z,5.50
2024-03-12T17:12:49.773Z,5.30
2024-03-12T17:15:21.707Z,3.60
2024-03-12T17:17:50.986Z,4.80
2024-03-12T17:20:19.424Z,3.90
2024-03-12T17:22:49.312Z,2.30
2024-03-12T17:25:20.370Z,2.30
2024-03-12T17:27:50.727Z,1.70
2024-03-12T17:30:21.230Z,1.90
2024-03-12T17:32:50.692Z,1.20
2024-03-12T17:35:20.264Z,1.50
2024-03-12T17:37:54.065Z,1.90
2024-03-12T17:40:23.732Z,1.80
2024-03-12T17:42:53.228Z,1.70
2024-03-12T17:45:25.265Z,1.50
2024-03-12T17:47:56.526Z,1.80
2024-03-12T17:50:28.792Z,1.50
2024-03-12T17:53:03.318Z,1.40
2024-03-12T17:55:32.398Z,2.00
2024-03-12T17:58:01.574Z,2.30
2024-03-12T18:00:31.232Z,1.70
2024-03-12T18:03:00.684Z,1.20
2024-03-12T18:05:29.880Z,1.70
2024-03-12T18:08:00.420Z,1.60
2024-03-12T18:10:30.220Z,1.70
2024-03-12T18:12:58.912Z,1.70
2024-03-12T18:15:29.195Z,1.70
2024-03-12T18:17:57.419Z,2.00
2024-03-12T18:20:31.520Z,1.70
2024-03-12T18:23:00.101Z,1.40
2024-03-12T18:25:28.638Z,1.50
2024-03-12T18:27:58.020Z,2.10
2024-03-12T18:30:27.581Z,1.20
2024-03-12T18:32:57.526Z,1.50
2024-03-12T18:35:26.709Z,1.30
2024-03-12T18:37:54.890Z,1.80
2024-03-12T18:40:23.675Z,2.30
2024-03-12T18:42:52.633Z,1.90
2024-03-12T18:45:24.188Z,1.60
2024-03-12T18:47:56.420Z,3.00
2024-03-12T18:50:25.813Z,1.40
2024-03-12T18:52:54.881Z,1.80
2024-03-12T18:55:23.751Z,3.60
2024-03-12T18:57:52.595Z,2.30
2024-03-12T19:00:24.911Z,1.40
2024-03-12T19:02:55.176Z,1.70
2024-03-12T19:05:26.002Z,1.60
2024-03-12T19:07:56.377Z,1.50
2024-03-12T19:10:30.737Z,0.80
2024-03-12T19:13:00.676Z,1.70
2024-03-12T19:15:37.572Z,1.30
2024-03-12T19:18:15.185Z,1.30
2024-03-12T19:20:43.909Z,1.50
2024-03-12T19:23:12.663Z,1.90
2024-03-12T19:25:41.453Z,1.40
2024-03-12T19:28:10.091Z,2.10
2024-03-12T19:30:39.753Z,1.40
2024-03-12T19:33:10.365Z,1.40
2024-03-12T19:35:40.267Z,1.70
2024-03-12T19:38:10.604Z,1.90
2024-03-12T19:40:39.203Z,1.70
2024-03-12T19:43:08.035Z,1.90
2024-03-12T19:45:36.680Z,2.00
2024-03-12T19:48:07.144Z,1.90
2024-03-12T19:50:36.946Z,1.90
2024-03-12T19:53:05.044Z,1.70
2024-03-12T19:55:35.644Z,1.90
2024-03-12T19:58:05.660Z,1.80
2024-03-12T20:00:34.660Z,1.20
2024-03-12T20:03:07.800Z,1.40
2024-03-12T20:05:37.487Z,1.40
2024-03-12T20:08:10.659Z,1.10
2024-03-12T20:10:39.435Z,1.50
2024-03-12T20:13:08.089Z,1.40
2024-03-12T20:15:38.397Z,1.50
2024-03-12T20:18:07.675Z,1.60
2024-03-12T20:20:36.934Z,1.60
2024-03-12T20:23:07.220Z,1.50
2024-03-12T20:25:35.964Z,1.30
2024-03-12T20:28:11.010Z,1.60
2024-03-12T20:30:41.061Z,1.50
2024-03-12T20:33:12.072Z,1.70
2024-03-12T20:35:40.409Z,1.60
2024-03-12T20:38:10.252Z,2.10
2024-03-12T20:40:38.980Z,1.30
2024-03-12T20:43:07.718Z,1.20
2024-03-12T20:45:39.321Z,1.40
2024-03-12T20:48:11.814Z,1.40
2024-03-12T20:50:41.279Z,1.20
2024-03-12T20:53:11.740Z,1.10
2024-03-12T20:55:40.621Z,1.20
2024-03-12T20:58:09.205Z,1.10
2024-03-12T21:00:39.293Z,1.30
2024-03-12T21:03:11.522Z,1.20
2024-03-12T21:05:40.796Z,0.90
2024-03-12T21:08:09.461Z,1.20
2024-03-12T21:10:39.436Z,1.60
2024-03-12T21:13:07.917Z,1.50
2024-03-12T21:15:36.316Z,1.70
2024-03-12T21:18:07.396Z,1.70
2024-03-12T21:20:35.826Z,1.30
2024-03-12T21:23:05.238Z,2.10
2024-03-12T21:25:36.350Z,1.30
2024-03-12T21:28:04.940Z,1.90
2024-03-12T21:30:33.173Z,2.00
2024-03-12T21:33:01.285Z,4.70
2024-03-12T21:35:30.189Z,1.90
2024-03-12T21:37:58.958Z,1.70
2024-03-12T21:40:28.107Z,2.50
2024-03-12T21:42:56.442Z,1.80
2024-03-12T21:45:25.931Z,1.80
2024-03-12T21:47:54.373Z,1.50
2024-03-12T21:50:22.994Z,1.70
2024-03-12T21:52:51.848Z,1.70
2024-03-12T21:55:20.272Z,1.50
2024-03-12T21:57:49.302Z,1.70
2024-03-12T22:00:25.531Z,2.10
2024-03-12T22:02:54.003Z,2.20
2024-03-12T22:05:22.740Z,2.00
2024-03-12T22:07:51.455Z,1.80
2024-03-12T22:10:20.589Z,1.20
2024-03-12T22:12:49.334Z,0.90
2024-03-12T22:15:17.648Z,1.30
2024-03-12T22:17:47.260Z,1.50
2024-03-12T22:20:19.959Z,1.50
2024-03-12T22:22:49.672Z,1.40
2024-03-12T22:25:19.513Z,1.00
2024-03-12T22:27:49.856Z,1.00
2024-03-12T22:30:18.789Z,1.10
2024-03-12T22:32:48.536Z,1.60
2024-03-12T22:35:17.149Z,1.60
2024-03-12T22:37:48.981Z,1.40
2024-03-12T22:40:18.373Z,1.90
2024-03-12T22:42:47.191Z,1.20
2024-03-12T22:45:16.358Z,1.50
2024-03-12T22:47:44.951Z,1.80
2024-03-12T22:50:14.254Z,1.50
2024-03-12T22:52:46.466Z,1.50
2024-03-12T22:55:15.609Z,1.30
2024-03-12T22:57:44.292Z,2.40
2024-03-12T23:00:40.675Z,1.30
2024-03-12T23:03:11.102Z,1.40
2024-03-12T23:05:41.934Z,1.40
2024-03-12T23:08:15.642Z,1.40
2024-03-12T23:10:47.393Z,1.40
2024-03-12T23:13:17.570Z,1.80
2024-03-12T23:15:48.238Z,1.80
2024-03-12T23:18:16.927Z,1.80
2024-03-12T23:20:47.307Z,1.50
2024-03-12T23:25:45.456Z,1.40
2024-03-12T23:28:14.463Z,2.30
2024-03-12T23:30:45.599Z,1.40
2024-03-12T23:33:15.216Z,2.20
2024-03-12T23:35:43.835Z,1.80
2024-03-12T23:38:12.969Z,1.70
2024-03-12T23:40:42.303Z,1.90
2024-03-12T23:43:11.955Z,1.90
2024-03-12T23:45:40.062Z,2.10
2024-03-12T23:48:08.281Z,2.60
2024-03-12T23:50:37.315Z,3.70
2024-03-12T23:53:06.875Z,2.10
2024-03-12T23:55:35.664Z,2.00
2024-03-12T23:58:05.494Z,1.80
